Arikun — 3EKY2 — position and weather

sailwx.info

Track history (hours):
 
Tides and Currents Weather Stations Pressure Air Temp Water Temp Dewpoint Dewpoint Depression Visibility Wind Speed Wind Dir Waves Ship Positions

Arikun

Last reported at 2018-Apr-17 10:32 UTC. Time now 2018-Apr-24 14:36 UTC.
Position N 01°13' E 103°56'.

Length 112 m; draft 7.8 m.

Type: Cargo ship. MMSI: 372870000.

Date/timePositionNaut miles runAvg speedWind from/ knotsBaromVisibWave heightAir tempDewpointWater temp
2018-Apr-17 10:32N 01°13' E 103°56'210.3
2018-Apr-17 10:23N 01°13' E 103°55'410.7
2018-Apr-17 09:59N 01°11' E 103°51'510.5
2018-Apr-17 09:29N 01°08' E 103°46'510.3
2018-Apr-17 09:00N 01°05' E 103°43'5 9.7
2018-Apr-17 08:30N 01°03' E 103°38'610.6
2018-Apr-17 07:54N 01°06' E 103°32'410.6
2018-Apr-17 07:30N 01°09' E 103°29'510.5
2018-Apr-17 06:59N 01°12' E 103°24'  
2018-Apr-14 00:49N 01°16' E 103°24'410.9
2018-Apr-14 00:28N 01°14' E 103°27'511.8
2018-Apr-14 00:00N 01°13' E 103°32'612.8
2018-Apr-13 23:30N 01°11' E 103°39'612.7
2018-Apr-13 23:00N 01°08' E 103°44'613.0
2018-Apr-13 22:30N 01°11' E 103°50'  
Track history (hours):
 
Tides and Currents Weather Stations Pressure Air Temp Water Temp Dewpoint Dewpoint Depression Visibility Wind Speed Wind Dir Waves Ship Positions

Arikun

Last reported at 2018-Apr-17 10:32 UTC. Time now 2018-Apr-24 14:36 UTC.
Position N 01°13' E 103°56'.

Length 112 m; draft 7.8 m.

Type: Cargo ship. MMSI: 372870000.

Date/timePositionNaut miles runAvg speedWind from/ knotsBaromVisibWave heightAir tempDewpointWater temp
2018-Apr-17 10:32N 01°13' E 103°56'210.3
2018-Apr-17 10:23N 01°13' E 103°55'410.7
2018-Apr-17 09:59N 01°11' E 103°51'510.5
2018-Apr-17 09:29N 01°08' E 103°46'510.3
2018-Apr-17 09:00N 01°05' E 103°43'5 9.7
2018-Apr-17 08:30N 01°03' E 103°38'610.6
2018-Apr-17 07:54N 01°06' E 103°32'410.6
2018-Apr-17 07:30N 01°09' E 103°29'510.5
2018-Apr-17 06:59N 01°12' E 103°24'  
2018-Apr-14 00:49N 01°16' E 103°24'410.9
2018-Apr-14 00:28N 01°14' E 103°27'511.8
2018-Apr-14 00:00N 01°13' E 103°32'612.8
2018-Apr-13 23:30N 01°11' E 103°39'612.7
2018-Apr-13 23:00N 01°08' E 103°44'613.0
2018-Apr-13 22:30N 01°11' E 103°50'  

Dump ship's entire track history